Time;durP1;ratioP1;P1;durP2;ratioP2;P2;SDS_P1;SDS_P2;PMS_P1;PMS_P2;Temp;Humidity;BMP_temperature;BMP_pressure;BME280_temperature;BME280_humidity;BME280_pressure;Samples;Min_cycle;Max_cycle;Signal;HPM_P1;HPM_P2
2022/06/04 00:00:49;;;;;;;11.63;5.75;;;13.20;99.90;;;;;;5071608;28;20032;-52
2022/06/04 00:03:17;;;;;;;9.70;5.25;;;13.10;99.90;;;;;;5071182;28;20066;-50
2022/06/04 00:05:46;;;;;;;9.63;5.13;;;13.00;99.90;;;;;;5071492;28;20042;-50
2022/06/04 00:08:13;;;;;;;9.38;5.50;;;13.10;99.90;;;;;;5071015;28;20028;-49
2022/06/04 00:16:16;;;;;;;8.57;4.85;;;13.10;99.90;;;;;;5070931;28;20055;-50
2022/06/04 00:18:42;;;;;;;8.45;5.13;;;13.00;99.90;;;;;;5070955;28;20147;-48
2022/06/04 00:21:09;;;;;;;8.85;5.28;;;13.00;99.90;;;;;;5070253;28;20364;-49
2022/06/04 00:23:35;;;;;;;10.82;5.38;;;12.80;99.90;;;;;;5070481;28;20075;-51
2022/06/04 00:26:02;;;;;;;10.52;5.53;;;13.00;99.90;;;;;;5071360;28;20436;-48
2022/06/04 00:28:28;;;;;;;11.27;5.20;;;12.90;99.90;;;;;;5052952;28;20056;-50
2022/06/04 00:30:56;;;;;;;12.57;5.28;;;12.70;99.90;;;;;;5053314;28;20395;-49
2022/06/04 00:33:22;;;;;;;10.98;5.65;;;12.90;99.90;;;;;;5070935;28;20032;-51
2022/06/04 00:35:52;;;;;;;10.38;5.15;;;12.80;99.90;;;;;;5070598;28;20037;-50
2022/06/04 00:38:21;;;;;;;12.00;5.55;;;12.80;99.90;;;;;;5070808;28;20476;-52
2022/06/04 00:40:49;;;;;;;15.52;5.57;;;12.60;99.90;;;;;;5070853;28;20105;-44
2022/06/04 00:43:17;;;;;;;8.63;5.15;;;12.60;99.90;;;;;;5069986;28;20033;-48
2022/06/04 00:46:20;;;;;;;9.35;5.10;;;12.60;99.90;;;;;;5070626;28;20807;-46
2022/06/04 00:48:46;;;;;;;10.23;5.60;;;12.50;99.90;;;;;;5070307;28;20043;-46
2022/06/04 00:51:12;;;;;;;10.45;5.30;;;12.50;99.90;;;;;;5070380;28;20383;-47
2022/06/04 00:53:38;;;;;;;12.52;5.30;;;12.40;99.90;;;;;;5070317;28;20036;-48
2022/06/04 00:56:16;;;;;;;13.30;5.72;;;12.50;99.90;;;;;;5070256;28;20064;-47
2022/06/04 00:59:27;;;;;;;12.48;5.82;;;12.60;99.90;;;;;;5070225;28;20036;-44
2022/06/04 01:01:58;;;;;;;12.05;5.57;;;12.40;99.90;;;;;;5070462;28;20033;-50
2022/06/04 01:04:50;;;;;;;14.07;5.55;;;12.40;99.90;;;;;;5070569;28;20048;-49
2022/06/04 01:07:39;;;;;;;10.55;5.18;;;12.40;99.90;;;;;;5068928;28;20036;-46
2022/06/04 01:10:27;;;;;;;13.93;5.63;;;12.40;99.90;;;;;;5070250;28;20116;-48
2022/06/04 01:13:07;;;;;;;11.40;5.57;;;12.30;99.90;;;;;;5070260;28;20123;-47
2022/06/04 01:16:02;;;;;;;15.00;6.07;;;12.30;99.90;;;;;;5052372;28;20479;-48
2022/06/04 01:19:07;;;;;;;12.38;5.75;;;12.30;99.90;;;;;;5051846;28;20504;-49
2022/06/04 01:22:31;;;;;;;11.67;6.57;;;12.30;99.90;;;;;;5070248;28;20048;-47
2022/06/04 01:25:19;;;;;;;12.02;5.60;;;12.30;99.90;;;;;;5014533;28;20494;-48
2022/06/04 01:27:50;;;;;;;12.63;5.82;;;12.30;99.90;;;;;;5070143;28;20098;-50
2022/06/04 01:30:41;;;;;;;15.20;6.10;;;12.20;99.90;;;;;;5069820;28;20044;-48
2022/06/04 01:33:17;;;;;;;12.45;6.28;;;12.10;99.90;;;;;;5068025;28;20040;-49
2022/06/04 01:35:48;;;;;;;12.48;5.78;;;12.10;99.90;;;;;;5070052;28;20102;-49
2022/06/04 01:38:24;;;;;;;11.25;5.57;;;12.20;99.90;;;;;;5069722;28;20036;-51
2022/06/04 01:41:05;;;;;;;13.07;6.20;;;12.00;99.90;;;;;;5069843;28;20039;-48
2022/06/04 01:43:37;;;;;;;12.65;5.72;;;12.30;99.90;;;;;;5068073;28;20035;-49
2022/06/04 01:46:27;;;;;;;11.20;6.45;;;12.00;99.90;;;;;;5069645;28;20033;-47
2022/06/04 01:48:58;;;;;;;11.07;6.18;;;12.00;99.90;;;;;;5069389;28;20032;-50
2022/06/04 01:51:28;;;;;;;14.65;6.10;;;11.90;99.90;;;;;;5070049;28;20037;-48
2022/06/04 01:54:02;;;;;;;11.05;5.85;;;11.90;99.90;;;;;;5070434;28;20040;-48
2022/06/04 01:56:35;;;;;;;13.27;6.05;;;11.90;99.90;;;;;;5069919;28;20059;-49
2022/06/04 01:59:30;;;;;;;12.95;6.10;;;12.00;99.90;;;;;;5051644;28;20041;-46
2022/06/04 02:01:59;;;;;;;11.98;6.93;;;11.90;99.90;;;;;;5051658;28;20040;-47
2022/06/04 02:04:35;;;;;;;16.30;9.15;;;11.80;99.90;;;;;;5069862;28;20036;-47
2022/06/04 02:09:55;;;;;;;10.73;6.75;;;11.80;99.90;;;;;;5069916;28;20059;-46
2022/06/04 02:12:22;;;;;;;16.83;6.75;;;11.80;99.90;;;;;;5069893;28;20045;-46
2022/06/04 02:14:48;;;;;;;13.13;6.35;;;11.80;99.90;;;;;;5069661;28;20429;-49
2022/06/04 02:17:21;;;;;;;17.42;6.90;;;11.80;99.90;;;;;;5069171;28;20048;-51
2022/06/04 02:19:47;;;;;;;19.75;7.55;;;11.80;99.90;;;;;;5069500;28;20040;-47
2022/06/04 02:22:13;;;;;;;14.35;7.15;;;11.80;99.90;;;;;;5069528;28;20072;-49
2022/06/04 02:24:39;;;;;;;13.13;6.85;;;11.70;99.90;;;;;;5052031;28;20074;-49
2022/06/04 02:27:06;;;;;;;16.00;7.47;;;11.60;99.90;;;;;;5069632;28;20387;-49
2022/06/04 02:29:33;;;;;;;13.38;7.13;;;11.60;99.90;;;;;;5069638;28;20086;-50
2022/06/04 02:32:25;;;;;;;14.38;7.20;;;11.60;99.90;;;;;;5069864;28;20052;-45
2022/06/04 02:35:01;;;;;;;16.17;7.72;;;11.60;99.90;;;;;;5070631;28;20373;-49
2022/06/04 02:37:30;;;;;;;14.80;7.95;;;11.60;99.90;;;;;;5055329;28;20036;-52
2022/06/04 02:40:16;;;;;;;15.13;7.63;;;11.50;99.90;;;;;;5073172;28;20033;-49
2022/06/04 02:43:14;;;;;;;17.80;8.40;;;11.50;99.90;;;;;;5072190;28;20044;-47
2022/06/04 02:45:54;;;;;;;17.73;8.10;;;11.50;99.90;;;;;;5072344;28;20045;-49
2022/06/04 02:48:36;;;;;;;13.85;8.15;;;11.60;99.90;;;;;;5054599;28;20037;-49
2022/06/04 02:51:07;;;;;;;16.80;7.80;;;11.50;99.90;;;;;;5073295;28;20047;-52
2022/06/04 02:53:34;;;;;;;15.18;8.13;;;11.50;99.90;;;;;;5073211;28;20378;-51
2022/06/04 02:56:17;;;;;;;17.45;8.20;;;11.50;99.90;;;;;;5072880;28;20471;-48
2022/06/04 02:58:46;;;;;;;20.53;8.47;;;11.30;99.90;;;;;;5072451;28;20029;-48
2022/06/04 03:01:13;;;;;;;14.30;7.68;;;11.50;99.90;;;;;;5055186;28;20033;-49
2022/06/04 03:03:40;;;;;;;16.15;8.13;;;11.30;99.90;;;;;;5072573;28;20055;-51
2022/06/04 03:06:08;;;;;;;17.08;8.88;;;11.30;99.90;;;;;;5072880;28;20386;-47
2022/06/04 03:08:37;;;;;;;16.45;8.13;;;11.40;99.90;;;;;;5073084;28;20051;-50
2022/06/04 03:11:04;;;;;;;15.65;8.73;;;11.30;99.90;;;;;;5072898;28;20490;-48
2022/06/04 03:13:29;;;;;;;15.18;8.35;;;11.30;99.90;;;;;;5072382;28;20371;-47
2022/06/04 03:15:56;;;;;;;16.92;9.27;;;11.20;99.90;;;;;;5071978;28;20052;-45
2022/06/04 03:18:21;;;;;;;21.42;9.07;;;11.20;99.90;;;;;;5054107;28;20570;-50
2022/06/04 03:20:47;;;;;;;20.25;9.65;;;11.10;99.90;;;;;;5072672;28;20123;-52
2022/06/04 03:23:13;;;;;;;15.90;9.82;;;11.10;99.90;;;;;;5072390;28;20564;-47
2022/06/04 03:25:39;;;;;;;14.30;9.50;;;11.20;99.90;;;;;;5072643;28;20122;-48
2022/06/04 03:28:06;;;;;;;17.20;9.98;;;11.10;99.90;;;;;;5072470;28;20035;-47
2022/06/04 03:30:34;;;;;;;17.02;9.63;;;11.10;99.90;;;;;;5072304;28;20082;-49
2022/06/04 03:33:00;;;;;;;26.80;10.43;;;11.20;99.90;;;;;;5072022;28;20120;-46
2022/06/04 03:35:26;;;;;;;19.10;10.68;;;11.10;99.90;;;;;;5072375;28;20028;-48
2022/06/04 03:37:52;;;;;;;17.83;10.20;;;11.10;99.90;;;;;;5071683;28;20028;-48
2022/06/04 03:40:18;;;;;;;24.55;10.52;;;11.10;99.90;;;;;;5070875;28;20127;-50
2022/06/04 03:42:43;;;;;;;22.85;10.07;;;11.10;99.90;;;;;;5071475;28;20540;-49
2022/06/04 03:45:12;;;;;;;19.10;10.38;;;11.00;99.90;;;;;;5071790;28;20032;-49
2022/06/04 03:47:38;;;;;;;16.92;9.48;;;11.10;99.90;;;;;;5070685;28;20501;-48
2022/06/04 03:50:10;;;;;;;21.05;9.70;;;11.10;99.90;;;;;;5071809;28;20123;-50
2022/06/04 03:52:36;;;;;;;17.00;9.93;;;11.00;99.90;;;;;;5071858;28;20059;-52
2022/06/04 03:55:02;;;;;;;19.70;10.93;;;11.10;99.90;;;;;;5071451;28;20037;-50
2022/06/04 03:57:48;;;;;;;17.75;9.43;;;10.90;99.90;;;;;;5053459;28;20051;-47
2022/06/04 04:00:17;;;;;;;20.77;10.38;;;11.00;99.90;;;;;;5071864;28;20048;-51
2022/06/04 04:02:47;;;;;;;19.55;9.98;;;11.00;99.90;;;;;;5071443;28;20122;-46
2022/06/04 04:05:14;;;;;;;18.50;9.43;;;11.10;99.90;;;;;;5071537;28;20037;-51
2022/06/04 04:07:40;;;;;;;17.70;9.38;;;11.10;99.90;;;;;;5071751;28;20491;-47
2022/06/04 04:10:07;;;;;;;17.77;9.35;;;11.10;99.90;;;;;;5069856;28;20028;-49
2022/06/04 04:12:33;;;;;;;15.05;8.52;;;11.10;99.90;;;;;;5071560;28;20044;-48
2022/06/04 04:14:59;;;;;;;15.35;8.80;;;11.10;99.90;;;;;;5071492;28;20036;-49
2022/06/04 04:17:25;;;;;;;14.20;8.32;;;11.00;99.90;;;;;;5070628;28;20059;-49
2022/06/04 04:19:51;;;;;;;19.83;8.88;;;11.10;99.90;;;;;;5070698;28;20045;-51
2022/06/04 04:22:18;;;;;;;14.07;8.55;;;11.10;99.90;;;;;;5071305;28;20472;-50
2022/06/04 04:24:44;;;;;;;18.45;8.80;;;11.10;99.90;;;;;;5071422;28;20056;-48
2022/06/04 04:27:11;;;;;;;15.65;8.75;;;11.20;99.90;;;;;;5071050;28;20133;-52
2022/06/04 04:29:37;;;;;;;15.68;8.10;;;11.20;99.90;;;;;;5071036;28;20076;-48
2022/06/04 04:32:04;;;;;;;14.68;8.65;;;11.20;99.90;;;;;;5069649;28;20051;-51
2022/06/04 04:34:29;;;;;;;15.63;8.52;;;11.20;99.90;;;;;;5071088;28;20044;-50
2022/06/04 04:36:55;;;;;;;15.02;8.02;;;11.40;99.90;;;;;;5070691;28;20035;-51
2022/06/04 04:39:21;;;;;;;15.63;7.68;;;11.30;99.90;;;;;;5071054;28;20457;-51
2022/06/04 04:41:46;;;;;;;14.55;8.25;;;11.30;99.90;;;;;;5052892;28;20070;-50
2022/06/04 04:44:12;;;;;;;15.60;8.50;;;11.30;99.90;;;;;;5070484;28;20115;-52
2022/06/04 04:46:38;;;;;;;16.80;7.95;;;11.30;99.90;;;;;;5070696;28;20047;-51
2022/06/04 04:49:04;;;;;;;14.70;6.95;;;11.40;99.90;;;;;;5070301;28;20047;-51
2022/06/04 04:51:30;;;;;;;18.40;8.45;;;11.50;99.90;;;;;;5070535;28;20087;-48
2022/06/04 04:53:56;;;;;;;14.98;7.63;;;11.40;99.90;;;;;;5070525;28;20044;-48
2022/06/04 04:56:24;;;;;;;14.57;7.63;;;11.40;99.90;;;;;;5070884;28;20042;-52
2022/06/04 04:58:50;;;;;;;14.98;7.80;;;11.50;99.90;;;;;;5070190;28;20437;-51
2022/06/04 05:01:22;;;;;;;18.33;7.35;;;11.40;99.90;;;;;;5070741;28;20441;-48
2022/06/04 05:03:48;;;;;;;14.52;7.40;;;11.60;99.90;;;;;;5070668;28;20427;-49
2022/06/04 05:06:16;;;;;;;11.68;7.15;;;11.60;99.90;;;;;;5070436;28;20068;-51
2022/06/04 05:08:41;;;;;;;11.57;6.45;;;11.70;99.90;;;;;;5050815;28;20039;-50
2022/06/04 05:11:12;;;;;;;13.60;6.55;;;11.80;99.90;;;;;;5070538;28;20028;-51
2022/06/04 05:13:38;;;;;;;12.15;6.60;;;12.00;99.90;;;;;;5070254;28;20442;-49
2022/06/04 05:16:05;;;;;;;16.30;7.18;;;12.00;99.90;;;;;;5070295;28;20131;-48
2022/06/04 05:18:32;;;;;;;11.75;6.32;;;12.00;99.90;;;;;;5069601;28;20044;-53
2022/06/04 05:21:11;;;;;;;13.13;6.40;;;12.00;99.90;;;;;;5070539;28;20040;-49
2022/06/04 05:23:38;;;;;;;14.88;6.47;;;12.10;99.90;;;;;;5069984;28;20080;-49
2022/06/04 05:26:05;;;;;;;13.30;6.78;;;12.20;99.90;;;;;;5052435;28;20442;-49
2022/06/04 05:28:30;;;;;;;12.77;6.40;;;12.10;99.90;;;;;;5069939;28;20111;-50
2022/06/04 05:30:56;;;;;;;10.98;6.07;;;12.10;99.90;;;;;;5070060;28;20123;-47
2022/06/04 05:33:22;;;;;;;10.63;6.05;;;12.20;99.90;;;;;;5069899;28;20041;-49
2022/06/04 05:35:47;;;;;;;10.85;6.07;;;12.20;99.90;;;;;;5052454;28;20033;-49
2022/06/04 05:38:13;;;;;;;11.82;5.68;;;12.10;99.90;;;;;;5069955;28;20028;-53
2022/06/04 05:40:39;;;;;;;12.52;6.57;;;12.30;99.90;;;;;;5051853;28;20049;-49
2022/06/04 05:43:04;;;;;;;13.82;6.00;;;12.30;99.90;;;;;;5068676;28;20090;-47
2022/06/04 05:45:30;;;;;;;11.63;5.93;;;12.40;99.90;;;;;;5069852;28;20404;-50
2022/06/04 05:47:56;;;;;;;14.10;5.60;;;12.50;99.90;;;;;;5069167;28;20028;-48
2022/06/04 05:50:21;;;;;;;12.32;6.43;;;12.60;99.90;;;;;;5069985;28;20193;-52
2022/06/04 05:52:47;;;;;;;11.57;5.05;;;12.60;99.90;;;;;;5069580;28;20052;-47
2022/06/04 05:55:13;;;;;;;10.25;5.22;;;12.70;99.90;;;;;;5069757;28;20037;-47
2022/06/04 05:57:38;;;;;;;9.25;5.18;;;12.70;99.90;;;;;;5051542;28;20089;-49
2022/06/04 06:00:08;;;;;;;10.38;5.13;;;12.70;99.90;;;;;;5069409;28;20044;-50
2022/06/04 06:02:37;;;;;;;11.70;5.40;;;12.60;99.90;;;;;;5069722;28;20479;-47
2022/06/04 06:05:04;;;;;;;11.75;5.28;;;12.60;99.90;;;;;;5051763;28;20157;-46
2022/06/04 06:07:30;;;;;;;7.90;5.03;;;12.60;99.90;;;;;;5069828;28;20037;-46
2022/06/04 06:09:56;;;;;;;9.85;5.45;;;12.70;99.90;;;;;;5071101;28;20033;-50
2022/06/04 06:12:22;;;;;;;9.32;5.15;;;12.80;99.90;;;;;;5073642;28;20106;-49
2022/06/04 06:14:47;;;;;;;8.50;4.90;;;12.80;99.90;;;;;;5073822;28;21325;-46
2022/06/04 06:17:13;;;;;;;9.20;5.80;;;12.90;99.90;;;;;;5073020;28;20526;-49
2022/06/04 06:19:39;;;;;;;9.45;4.88;;;12.90;99.90;;;;;;5072295;28;20117;-45
2022/06/04 06:22:04;;;;;;;9.70;4.72;;;13.00;99.90;;;;;;5073510;28;20051;-44
2022/06/04 06:24:30;;;;;;;11.00;4.78;;;13.10;99.90;;;;;;5073372;28;20037;-51
2022/06/04 06:26:58;;;;;;;10.35;4.85;;;13.10;99.90;;;;;;5073522;28;20035;-48
2022/06/04 06:29:27;;;;;;;9.40;4.70;;;13.20;99.90;;;;;;5073260;28;20302;-50
2022/06/04 06:31:54;;;;;;;7.90;4.65;;;13.20;99.90;;;;;;5073306;28;20492;-46
2022/06/04 06:34:20;;;;;;;8.50;4.45;;;13.30;99.90;;;;;;5073349;28;20052;-50
2022/06/04 06:36:46;;;;;;;9.70;4.40;;;13.40;99.90;;;;;;5073083;28;20040;-49
2022/06/04 06:39:12;;;;;;;9.70;4.07;;;13.50;99.90;;;;;;5073330;28;20044;-49
2022/06/04 06:41:39;;;;;;;10.77;4.90;;;13.50;99.90;;;;;;5073171;28;20058;-49
2022/06/04 06:44:05;;;;;;;9.20;4.93;;;13.50;99.90;;;;;;5073373;28;20108;-47
2022/06/04 06:46:33;;;;;;;9.02;4.63;;;13.50;99.90;;;;;;5072738;28;20037;-48
2022/06/04 06:49:04;;;;;;;9.32;4.40;;;13.50;99.90;;;;;;5072733;28;20093;-49
2022/06/04 06:51:51;;;;;;;9.63;4.70;;;13.50;99.90;;;;;;5072343;28;20075;-48
2022/06/04 06:54:19;;;;;;;8.73;4.43;;;13.70;99.90;;;;;;5071457;28;20093;-49
2022/06/04 06:56:46;;;;;;;11.35;4.93;;;13.70;99.90;;;;;;5072395;28;20123;-50
2022/06/04 06:59:12;;;;;;;8.65;4.40;;;13.80;99.90;;;;;;5072655;28;20044;-48
2022/06/04 07:01:41;;;;;;;8.85;4.70;;;13.80;99.90;;;;;;5072796;28;20044;-46
2022/06/04 07:04:07;;;;;;;9.00;4.05;;;13.90;99.90;;;;;;5072644;28;20079;-47
2022/06/04 07:06:43;;;;;;;7.15;3.97;;;13.80;99.90;;;;;;5072873;28;20121;-47
2022/06/04 07:09:17;;;;;;;8.45;4.13;;;13.80;99.90;;;;;;5072887;28;20387;-48
2022/06/04 07:11:44;;;;;;;8.05;3.90;;;13.90;99.90;;;;;;5072738;28;20090;-48
2022/06/04 07:14:10;;;;;;;7.05;4.00;;;14.00;99.90;;;;;;5072123;28;20044;-48
2022/06/04 07:16:36;;;;;;;8.32;4.10;;;14.00;99.90;;;;;;5072092;28;20436;-48
2022/06/04 07:19:02;;;;;;;9.95;4.30;;;14.20;99.90;;;;;;5071520;28;20052;-49
2022/06/04 07:21:29;;;;;;;7.85;4.43;;;14.30;99.90;;;;;;5053510;28;20055;-46
2022/06/04 07:23:55;;;;;;;8.48;4.22;;;14.30;99.90;;;;;;5072515;28;20037;-49
2022/06/04 07:26:21;;;;;;;6.80;3.92;;;14.40;99.90;;;;;;5072471;28;20028;-49
2022/06/04 07:28:47;;;;;;;10.27;4.32;;;14.50;99.90;;;;;;5072387;28;20040;-47
2022/06/04 07:31:14;;;;;;;8.40;4.15;;;14.70;99.90;;;;;;5072471;28;20042;-51
2022/06/04 07:33:45;;;;;;;7.88;4.40;;;14.60;99.90;;;;;;5071972;28;20055;-48
2022/06/04 07:36:21;;;;;;;7.50;4.50;;;14.60;99.90;;;;;;5072037;28;20047;-48
2022/06/04 07:38:47;;;;;;;6.53;4.45;;;14.70;99.90;;;;;;5072358;28;20074;-48
2022/06/04 07:41:28;;;;;;;9.95;4.22;;;14.80;99.90;;;;;;5053739;28;20453;-50
2022/06/04 07:43:55;;;;;;;9.05;3.78;;;14.90;99.90;;;;;;5072184;28;20098;-50
2022/06/04 07:46:22;;;;;;;10.68;4.80;;;15.00;99.90;;;;;;5072100;28;20028;-49
2022/06/04 07:48:48;;;;;;;7.53;4.18;;;15.20;99.90;;;;;;5070653;28;20024;-49
2022/06/04 07:51:15;;;;;;;7.43;3.70;;;15.30;99.90;;;;;;5072074;28;20043;-49
2022/06/04 07:53:41;;;;;;;8.98;4.28;;;15.40;99.90;;;;;;5070573;28;20028;-49
2022/06/04 07:56:08;;;;;;;7.85;4.20;;;15.50;99.90;;;;;;5071882;28;20036;-48
2022/06/04 07:58:35;;;;;;;6.93;3.90;;;15.80;99.90;;;;;;5071886;28;20086;-51
2022/06/04 08:01:03;;;;;;;7.47;3.60;;;15.70;99.90;;;;;;5071691;28;20037;-46
2022/06/04 08:03:33;;;;;;;5.97;3.72;;;15.90;99.90;;;;;;5071330;28;20047;-50
2022/06/04 08:05:59;;;;;;;6.63;3.90;;;16.10;99.90;;;;;;5054091;28;20102;-48
2022/06/04 08:08:25;;;;;;;7.07;3.90;;;16.10;99.90;;;;;;5071529;28;20029;-50
2022/06/04 08:10:51;;;;;;;7.30;3.70;;;16.00;99.90;;;;;;5071388;28;20044;-49
2022/06/04 08:13:26;;;;;;;6.97;4.13;;;16.10;99.90;;;;;;5069597;28;20083;-48
2022/06/04 08:16:00;;;;;;;8.63;3.97;;;15.90;99.90;;;;;;5071376;28;20063;-47
2022/06/04 08:18:26;;;;;;;8.90;4.25;;;16.10;99.90;;;;;;5071127;28;20040;-47
2022/06/04 08:20:55;;;;;;;7.30;4.13;;;16.00;99.90;;;;;;5053254;28;20101;-48
2022/06/04 08:23:21;;;;;;;8.85;4.03;;;16.00;99.90;;;;;;5070939;28;20032;-47
2022/06/04 08:25:50;;;;;;;7.22;3.70;;;16.10;99.90;;;;;;5071770;28;20115;-51
2022/06/04 08:28:17;;;;;;;8.25;3.97;;;16.20;99.90;;;;;;5071132;28;20044;-49
2022/06/04 08:30:44;;;;;;;7.65;4.25;;;16.20;99.90;;;;;;5052837;28;20115;-49
2022/06/04 08:33:11;;;;;;;8.20;4.13;;;16.30;99.90;;;;;;5070300;28;20048;-49
2022/06/04 08:35:37;;;;;;;8.98;3.83;;;16.30;99.90;;;;;;5071215;28;20044;-50
2022/06/04 08:38:03;;;;;;;8.23;4.30;;;16.50;99.90;;;;;;5052912;28;20032;-48
2022/06/04 08:40:38;;;;;;;6.50;3.45;;;16.50;99.90;;;;;;5070970;28;20045;-51
2022/06/04 08:43:23;;;;;;;8.40;3.83;;;16.60;99.90;;;;;;5070745;28;20090;-47
2022/06/04 08:45:48;;;;;;;;;;;16.70;99.90;;;;;;5071291;28;20037;-50
2022/06/04 08:48:19;;;;;;;7.72;3.60;;;16.70;99.90;;;;;;5069649;28;19970;-50
2022/06/04 08:50:46;;;;;;;8.77;3.95;;;16.60;99.90;;;;;;5070944;28;20068;-48
2022/06/04 08:53:19;;;;;;;6.47;3.95;;;16.60;99.90;;;;;;5070748;28;20532;-47
2022/06/04 08:59:18;;;;;;;;;;;16.60;99.90;;;;;;5071168;28;20339;-51
2022/06/04 09:01:53;;;;;;;7.45;4.00;;;16.80;99.90;;;;;;5070461;28;19923;-48
2022/06/04 09:04:37;;;;;;;8.70;4.30;;;16.80;99.90;;;;;;5070661;28;20145;-46
2022/06/04 09:07:15;;;;;;;7.60;4.00;;;17.00;99.90;;;;;;5070560;28;20486;-46
2022/06/04 09:09:57;;;;;;;6.85;3.85;;;17.20;99.90;;;;;;5070493;28;20117;-48
2022/06/04 09:12:29;;;;;;;7.32;3.78;;;17.60;99.90;;;;;;5070611;28;20060;-46
2022/06/04 09:15:12;;;;;;;7.32;3.90;;;17.80;99.90;;;;;;5070520;28;20110;-47
2022/06/04 09:17:46;;;;;;;6.27;3.60;;;18.10;99.90;;;;;;5070051;28;20036;-47
2022/06/04 09:20:19;;;;;;;8.35;3.72;;;18.40;99.90;;;;;;5070153;28;20645;-49
2022/06/04 09:22:47;;;;;;;7.85;3.80;;;18.20;99.90;;;;;;5070310;28;20475;-50
2022/06/04 09:25:21;;;;;;;8.68;3.30;;;18.50;99.90;;;;;;5070203;28;20788;-48
2022/06/04 09:28:37;;;;;;;8.05;4.45;;;18.50;99.90;;;;;;5070410;28;20383;-50
2022/06/04 09:31:19;;;;;;;6.93;4.05;;;18.50;99.90;;;;;;5027105;28;20097;-52
2022/06/04 09:34:03;;;;;;;7.53;3.42;;;18.70;99.90;;;;;;5070224;28;20395;-47
2022/06/04 09:36:32;;;;;;;7.88;3.80;;;19.00;99.90;;;;;;5069620;28;20048;-49
2022/06/04 09:39:04;;;;;;;8.63;3.90;;;19.20;99.90;;;;;;5070154;28;20129;-47
2022/06/04 09:41:32;;;;;;;6.45;3.70;;;19.40;99.90;;;;;;5070112;28;20032;-48
2022/06/04 09:44:00;;;;;;;7.93;3.70;;;19.50;99.90;;;;;;5069505;28;20044;-48
2022/06/04 09:46:26;;;;;;;5.15;2.97;;;19.40;99.90;;;;;;5051569;28;20036;-46
2022/06/04 09:48:55;;;;;;;8.15;3.90;;;19.40;99.90;;;;;;5069099;28;20040;-47
2022/06/04 09:51:24;;;;;;;6.07;3.40;;;19.60;99.90;;;;;;5070064;28;20052;-49
2022/06/04 09:54:20;;;;;;;7.68;3.83;;;19.40;99.90;;;;;;5069430;28;20138;-47
2022/06/04 09:56:52;;;;;;;6.90;3.92;;;19.30;99.90;;;;;;5069439;28;20044;-47
2022/06/04 09:59:24;;;;;;;6.20;3.22;;;19.50;99.90;;;;;;5069841;28;20067;-52
2022/06/04 10:02:18;;;;;;;5.80;3.33;;;19.80;99.90;;;;;;5070111;28;20140;-49
2022/06/04 10:04:49;;;;;;;6.77;3.57;;;19.90;99.90;;;;;;5070015;28;20036;-50
2022/06/04 10:07:18;;;;;;;10.05;3.35;;;20.10;99.90;;;;;;5069736;28;20275;-49
2022/06/04 10:09:56;;;;;;;6.57;3.60;;;20.10;99.90;;;;;;5069622;28;20036;-47
2022/06/04 10:15:51;;;;;;;10.38;3.60;;;20.30;99.90;;;;;;5069932;28;20518;-49
2022/06/04 10:18:32;;;;;;;6.75;4.00;;;20.40;99.90;;;;;;5069419;28;20049;-48
2022/06/04 10:21:26;;;;;;;5.80;3.30;;;20.40;99.90;;;;;;5069501;28;20032;-49
2022/06/04 10:23:54;;;;;;;7.18;3.33;;;20.50;99.90;;;;;;5067767;28;20135;-50
2022/06/04 10:26:38;;;;;;;7.43;3.90;;;20.60;99.90;;;;;;5069894;28;20037;-49
2022/06/04 10:29:13;;;;;;;5.47;3.40;;;20.40;99.90;;;;;;5069766;28;20471;-52
2022/06/04 10:32:07;;;;;;;5.93;3.40;;;20.70;99.90;;;;;;5069951;28;20090;-46
2022/06/04 10:34:52;;;;;;;5.32;3.60;;;20.90;99.90;;;;;;5069181;28;20040;-51
2022/06/04 10:37:17;;;;;;;5.07;3.38;;;21.00;99.90;;;;;;5069652;28;20110;-49
2022/06/04 10:39:53;;;;;;;7.50;3.63;;;21.20;99.90;;;;;;5069638;28;20040;-49
2022/06/04 10:42:46;;;;;;;8.40;3.65;;;21.00;99.90;;;;;;5069263;28;20046;-49
2022/06/04 10:45:41;;;;;;;8.43;4.40;;;21.30;99.90;;;;;;5069589;28;20032;-47
2022/06/04 10:48:27;;;;;;;6.63;3.85;;;21.00;99.90;;;;;;5068380;28;20133;-48
2022/06/04 10:51:26;;;;;;;6.18;3.55;;;21.30;99.90;;;;;;5069324;28;20048;-50
2022/06/04 10:54:32;;;;;;;6.03;3.20;;;21.60;99.90;;;;;;5069453;28;20075;-50
2022/06/04 10:57:06;;;;;;;5.88;3.47;;;21.70;99.90;;;;;;5071743;28;20076;-48
2022/06/04 11:00:03;;;;;;;8.77;3.90;;;21.70;99.90;;;;;;5072901;28;20480;-48
2022/06/04 11:02:54;;;;;;;8.02;4.20;;;21.60;99.90;;;;;;5072751;28;20162;-50
2022/06/04 11:05:35;;;;;;;7.35;4.10;;;21.40;99.90;;;;;;5073059;28;20074;-49
2022/06/04 11:08:21;;;;;;;7.40;4.10;;;21.20;99.90;;;;;;5054630;28;20036;-52
2022/06/04 11:10:57;;;;;;;7.25;3.95;;;21.10;99.90;;;;;;5073021;28;20075;-47
2022/06/04 11:13:25;;;;;;;12.55;4.05;;;21.10;99.90;;;;;;5072247;28;20067;-48
2022/06/04 11:15:56;;;;;;;7.20;4.18;;;20.90;99.90;;;;;;5072471;28;20057;-48
2022/06/04 11:18:42;;;;;;;6.13;3.65;;;21.00;99.90;;;;;;5072097;28;20052;-48
2022/06/04 11:21:24;;;;;;;7.10;3.97;;;21.20;99.90;;;;;;5072487;28;20044;-49
2022/06/04 11:24:06;;;;;;;8.45;3.70;;;21.30;99.90;;;;;;5072281;28;20043;-49
2022/06/04 11:26:40;;;;;;;7.25;3.50;;;21.30;99.90;;;;;;5072250;28;20115;-51
2022/06/04 11:29:08;;;;;;;5.93;3.50;;;21.30;99.90;;;;;;5072472;28;20033;-49
2022/06/04 11:32:15;;;;;;;6.75;3.60;;;21.30;99.90;;;;;;5072573;28;20037;-51
2022/06/04 11:34:40;;;;;;;8.35;3.58;;;21.30;99.90;;;;;;5068490;28;20123;-46
2022/06/04 11:37:18;;;;;;;7.85;3.50;;;21.50;99.90;;;;;;5054139;28;20112;-47
2022/06/04 11:40:07;;;;;;;5.78;3.10;;;21.50;99.90;;;;;;5053988;28;20483;-46
2022/06/04 11:43:08;;;;;;;8.18;3.13;;;21.90;99.90;;;;;;5071886;28;20051;-50
2022/06/04 11:45:54;;;;;;;9.60;3.45;;;22.30;99.90;;;;;;5072304;28;20274;-47
2022/06/04 11:48:41;;;;;;;6.75;3.38;;;22.40;99.90;;;;;;5071702;28;20111;-48
2022/06/04 11:51:27;;;;;;;6.75;3.30;;;22.60;99.90;;;;;;5071902;28;20050;-51
2022/06/04 11:54:48;;;;;;;6.32;2.95;;;23.00;99.90;;;;;;5070909;28;20048;-53
2022/06/04 11:57:20;;;;;;;7.18;2.58;;;23.10;99.70;;;;;;4970368;28;20051;-50
2022/06/04 11:59:51;;;;;;;7.07;2.90;;;23.20;99.80;;;;;;5068695;28;20048;-52
2022/06/04 12:02:29;;;;;;;9.43;2.78;;;23.20;99.90;;;;;;5053617;28;20072;-49
2022/06/04 12:05:28;;;;;;;5.88;2.70;;;23.20;99.00;;;;;;5071630;28;20036;-50
2022/06/04 12:07:56;;;;;;;6.05;2.70;;;23.40;99.90;;;;;;5030649;28;20059;-52
2022/06/04 12:10:40;;;;;;;5.57;2.55;;;23.40;99.70;;;;;;5071458;28;20036;-49
2022/06/04 12:13:37;;;;;;;4.95;2.50;;;23.20;98.70;;;;;;5069911;28;20080;-48
2022/06/04 12:16:11;;;;;;;6.00;2.10;;;23.20;98.70;;;;;;5070176;28;20056;-49
2022/06/04 12:18:58;;;;;;;4.47;2.17;;;23.20;99.20;;;;;;5071276;28;20542;-50
2022/06/04 12:24:38;;;;;;;5.50;2.33;;;22.70;98.90;;;;;;5071455;28;20133;-50
2022/06/04 12:27:22;;;;;;;6.45;2.85;;;22.80;99.60;;;;;;5056568;28;20040;-51
2022/06/04 12:29:52;;;;;;;4.93;2.35;;;22.80;99.20;;;;;;5071473;28;20098;-48
2022/06/04 12:32:29;;;;;;;4.90;2.40;;;22.90;99.50;;;;;;5071091;28;20475;-48
2022/06/04 12:35:11;;;;;;;5.45;2.60;;;23.20;98.80;;;;;;5053135;28;20044;-46
2022/06/04 12:37:40;;;;;;;4.35;2.67;;;23.10;99.40;;;;;;5070962;28;20051;-49
2022/06/04 12:40:24;;;;;;;6.93;2.65;;;23.00;98.40;;;;;;5070729;28;20056;-47
2022/06/04 12:43:01;;;;;;;5.70;2.65;;;23.00;98.80;;;;;;5070714;28;20028;-51
2022/06/04 12:45:59;;;;;;;5.45;2.38;;;23.00;98.00;;;;;;5070222;28;20035;-50
2022/06/04 12:48:28;;;;;;;7.03;3.13;;;22.70;98.30;;;;;;5048762;28;20052;-50
2022/06/04 12:51:35;;;;;;;4.68;2.50;;;22.60;98.20;;;;;;5070940;28;20044;-53
2022/06/04 12:54:07;;;;;;;4.55;2.47;;;22.60;98.30;;;;;;5070320;28;20044;-49
2022/06/04 12:56:41;;;;;;;6.18;2.50;;;22.50;98.50;;;;;;5070767;28;20048;-52
2022/06/04 12:59:22;;;;;;;;;;;22.80;99.40;;;;;;5071007;28;20046;-50
2022/06/04 13:01:48;;;;;;;6.60;2.85;;;22.70;98.20;;;;;;5070704;28;19920;-50
2022/06/04 13:04:14;;;;;;;5.90;2.20;;;22.70;98.30;;;;;;5070495;28;20051;-48
2022/06/04 13:06:58;;;;;;;7.95;2.60;;;22.90;98.80;;;;;;5052411;28;20040;-49
2022/06/04 13:09:48;;;;;;;6.70;3.25;;;23.10;98.50;;;;;;5070647;28;20040;-47
2022/06/04 13:12:27;;;;;;;6.43;2.53;;;22.90;98.00;;;;;;5052178;28;20127;-50
2022/06/04 13:15:13;;;;;;;6.00;2.20;;;23.10;98.10;;;;;;5070102;28;20032;-48
2022/06/04 13:17:45;;;;;;;4.32;2.35;;;23.10;98.60;;;;;;5069332;28;20059;-48
2022/06/04 13:20:41;;;;;;;7.32;2.42;;;23.20;97.70;;;;;;5069273;28;20511;-51
2022/06/04 13:23:21;;;;;;;5.40;2.78;;;23.60;97.50;;;;;;5070155;28;20036;-52
2022/06/04 13:26:08;;;;;;;6.13;2.35;;;24.20;97.10;;;;;;5070364;28;20029;-47
2022/06/04 13:28:42;;;;;;;6.25;2.28;;;24.50;97.00;;;;;;5070348;28;20032;-49
2022/06/04 13:31:39;;;;;;;4.00;2.30;;;24.70;96.50;;;;;;5070136;28;20036;-47
2022/06/04 13:34:25;;;;;;;4.32;2.10;;;24.70;96.90;;;;;;5070405;28;20044;-50